sensor_id;sensor_type;location;lat;lon;timestamp;P1;durP1;ratioP1;P2;durP2;ratioP2
35110;SDS011;21290;50.158;8.658;2023-04-06T00:00:33;11.23;;;6.53;;
35110;SDS011;21290;50.158;8.658;2023-04-06T00:02:59;9.43;;;6.13;;
35110;SDS011;21290;50.158;8.658;2023-04-06T00:05:26;9.87;;;6.50;;
35110;SDS011;21290;50.158;8.658;2023-04-06T00:07:59;12.20;;;6.67;;
35110;SDS011;21290;50.158;8.658;2023-04-06T00:10:25;10.63;;;6.57;;
35110;SDS011;21290;50.158;8.658;2023-04-06T00:12:52;8.57;;;5.83;;
35110;SDS011;21290;50.158;8.658;2023-04-06T00:15:22;11.10;;;6.63;;
35110;SDS011;21290;50.158;8.658;2023-04-06T00:17:49;11.50;;;6.10;;
35110;SDS011;21290;50.158;8.658;2023-04-06T00:20:16;12.63;;;6.30;;
35110;SDS011;21290;50.158;8.658;2023-04-06T00:22:43;9.27;;;5.57;;
35110;SDS011;21290;50.158;8.658;2023-04-06T00:25:09;10.67;;;6.43;;
35110;SDS011;21290;50.158;8.658;2023-04-06T00:27:37;11.70;;;6.60;;
35110;SDS011;21290;50.158;8.658;2023-04-06T00:30:04;12.40;;;6.83;;
35110;SDS011;21290;50.158;8.658;2023-04-06T00:32:32;8.63;;;5.70;;
35110;SDS011;21290;50.158;8.658;2023-04-06T00:34:58;10.40;;;6.13;;
35110;SDS011;21290;50.158;8.658;2023-04-06T00:37:25;7.57;;;5.73;;
35110;SDS011;21290;50.158;8.658;2023-04-06T00:39:51;9.57;;;5.70;;
35110;SDS011;21290;50.158;8.658;2023-04-06T00:42:18;11.27;;;5.67;;
35110;SDS011;21290;50.158;8.658;2023-04-06T00:44:55;7.83;;;5.70;;
35110;SDS011;21290;50.158;8.658;2023-04-06T00:47:23;10.20;;;6.07;;
35110;SDS011;21290;50.158;8.658;2023-04-06T00:49:52;9.77;;;6.05;;
35110;SDS011;21290;50.158;8.658;2023-04-06T00:52:19;11.00;;;6.37;;
35110;SDS011;21290;50.158;8.658;2023-04-06T00:54:46;9.83;;;6.00;;
35110;SDS011;21290;50.158;8.658;2023-04-06T00:57:13;9.07;;;5.70;;
35110;SDS011;21290;50.158;8.658;2023-04-06T00:59:40;15.37;;;6.20;;
35110;SDS011;21290;50.158;8.658;2023-04-06T01:02:07;9.73;;;6.10;;
35110;SDS011;21290;50.158;8.658;2023-04-06T01:04:34;9.23;;;5.40;;
35110;SDS011;21290;50.158;8.658;2023-04-06T01:07:01;8.80;;;5.90;;
35110;SDS011;21290;50.158;8.658;2023-04-06T01:09:28;9.43;;;5.43;;
35110;SDS011;21290;50.158;8.658;2023-04-06T01:11:58;10.83;;;5.50;;
35110;SDS011;21290;50.158;8.658;2023-04-06T01:14:25;13.50;;;6.00;;
35110;SDS011;21290;50.158;8.658;2023-04-06T01:16:52;13.00;;;5.77;;
35110;SDS011;21290;50.158;8.658;2023-04-06T01:19:19;7.90;;;5.67;;
35110;SDS011;21290;50.158;8.658;2023-04-06T01:21:47;9.27;;;5.33;;
35110;SDS011;21290;50.158;8.658;2023-04-06T01:24:15;6.83;;;4.30;;
35110;SDS011;21290;50.158;8.658;2023-04-06T01:26:42;10.53;;;6.27;;
35110;SDS011;21290;50.158;8.658;2023-04-06T01:29:10;8.37;;;5.60;;
35110;SDS011;21290;50.158;8.658;2023-04-06T01:31:37;14.73;;;5.40;;
35110;SDS011;21290;50.158;8.658;2023-04-06T01:34:05;9.80;;;5.70;;
35110;SDS011;21290;50.158;8.658;2023-04-06T01:36:32;10.43;;;6.67;;
35110;SDS011;21290;50.158;8.658;2023-04-06T01:38:58;9.37;;;6.23;;
35110;SDS011;21290;50.158;8.658;2023-04-06T01:41:25;11.30;;;5.97;;
35110;SDS011;21290;50.158;8.658;2023-04-06T01:43:52;12.23;;;5.93;;
35110;SDS011;21290;50.158;8.658;2023-04-06T01:46:20;10.73;;;6.00;;
35110;SDS011;21290;50.158;8.658;2023-04-06T01:48:47;10.00;;;6.27;;
35110;SDS011;21290;50.158;8.658;2023-04-06T01:51:14;10.70;;;6.67;;
35110;SDS011;21290;50.158;8.658;2023-04-06T01:53:41;7.97;;;6.07;;
35110;SDS011;21290;50.158;8.658;2023-04-06T01:56:07;13.17;;;7.27;;
35110;SDS011;21290;50.158;8.658;2023-04-06T01:58:34;10.90;;;7.50;;
35110;SDS011;21290;50.158;8.658;2023-04-06T02:01:01;10.87;;;6.43;;
35110;SDS011;21290;50.158;8.658;2023-04-06T02:03:28;10.00;;;6.90;;
35110;SDS011;21290;50.158;8.658;2023-04-06T02:05:55;9.00;;;6.30;;
35110;SDS011;21290;50.158;8.658;2023-04-06T02:08:22;11.73;;;6.97;;
35110;SDS011;21290;50.158;8.658;2023-04-06T02:10:48;10.27;;;7.00;;
35110;SDS011;21290;50.158;8.658;2023-04-06T02:13:15;9.67;;;6.17;;
35110;SDS011;21290;50.158;8.658;2023-04-06T02:15:41;14.27;;;7.00;;
35110;SDS011;21290;50.158;8.658;2023-04-06T02:18:08;13.83;;;7.20;;
35110;SDS011;21290;50.158;8.658;2023-04-06T02:20:36;9.63;;;6.87;;
35110;SDS011;21290;50.158;8.658;2023-04-06T02:23:02;12.03;;;7.07;;
35110;SDS011;21290;50.158;8.658;2023-04-06T02:25:29;11.10;;;6.97;;
35110;SDS011;21290;50.158;8.658;2023-04-06T02:27:56;13.20;;;7.23;;
35110;SDS011;21290;50.158;8.658;2023-04-06T02:30:22;11.80;;;7.87;;
35110;SDS011;21290;50.158;8.658;2023-04-06T02:32:49;10.47;;;7.20;;
35110;SDS011;21290;50.158;8.658;2023-04-06T02:35:16;10.90;;;7.80;;
35110;SDS011;21290;50.158;8.658;2023-04-06T02:37:43;13.00;;;7.93;;
35110;SDS011;21290;50.158;8.658;2023-04-06T02:40:09;11.33;;;7.90;;
35110;SDS011;21290;50.158;8.658;2023-04-06T02:42:36;10.43;;;7.33;;
35110;SDS011;21290;50.158;8.658;2023-04-06T02:45:03;13.47;;;8.10;;
35110;SDS011;21290;50.158;8.658;2023-04-06T02:47:30;12.17;;;7.87;;
35110;SDS011;21290;50.158;8.658;2023-04-06T02:49:57;15.20;;;7.83;;
35110;SDS011;21290;50.158;8.658;2023-04-06T02:52:23;10.07;;;7.60;;
35110;SDS011;21290;50.158;8.658;2023-04-06T02:54:50;18.43;;;8.17;;
35110;SDS011;21290;50.158;8.658;2023-04-06T02:57:17;11.57;;;7.80;;
35110;SDS011;21290;50.158;8.658;2023-04-06T02:59:43;13.33;;;7.93;;
35110;SDS011;21290;50.158;8.658;2023-04-06T03:02:10;13.07;;;8.53;;
35110;SDS011;21290;50.158;8.658;2023-04-06T03:04:37;15.80;;;8.03;;
35110;SDS011;21290;50.158;8.658;2023-04-06T03:07:04;13.13;;;7.73;;
35110;SDS011;21290;50.158;8.658;2023-04-06T03:09:30;14.30;;;8.30;;
35110;SDS011;21290;50.158;8.658;2023-04-06T03:11:57;13.23;;;8.70;;
35110;SDS011;21290;50.158;8.658;2023-04-06T03:14:24;12.83;;;8.43;;
35110;SDS011;21290;50.158;8.658;2023-04-06T03:16:50;13.57;;;8.00;;
35110;SDS011;21290;50.158;8.658;2023-04-06T03:19:17;12.77;;;7.73;;
35110;SDS011;21290;50.158;8.658;2023-04-06T03:21:43;10.60;;;8.07;;
35110;SDS011;21290;50.158;8.658;2023-04-06T03:24:10;12.10;;;7.77;;
35110;SDS011;21290;50.158;8.658;2023-04-06T03:26:37;11.43;;;8.17;;
35110;SDS011;21290;50.158;8.658;2023-04-06T03:29:03;11.57;;;7.90;;
35110;SDS011;21290;50.158;8.658;2023-04-06T03:31:30;13.30;;;8.23;;
35110;SDS011;21290;50.158;8.658;2023-04-06T03:33:56;11.03;;;8.27;;
35110;SDS011;21290;50.158;8.658;2023-04-06T03:36:23;13.33;;;7.47;;
35110;SDS011;21290;50.158;8.658;2023-04-06T03:38:51;12.37;;;8.73;;
35110;SDS011;21290;50.158;8.658;2023-04-06T03:41:19;16.60;;;8.30;;
35110;SDS011;21290;50.158;8.658;2023-04-06T03:43:47;16.87;;;8.97;;
35110;SDS011;21290;50.158;8.658;2023-04-06T03:46:13;12.87;;;8.80;;
35110;SDS011;21290;50.158;8.658;2023-04-06T03:48:40;12.73;;;8.13;;
35110;SDS011;21290;50.158;8.658;2023-04-06T03:51:07;17.07;;;8.20;;
35110;SDS011;21290;50.158;8.658;2023-04-06T03:53:33;13.67;;;8.43;;
35110;SDS011;21290;50.158;8.658;2023-04-06T03:56:00;14.70;;;9.33;;
35110;SDS011;21290;50.158;8.658;2023-04-06T03:58:29;15.27;;;8.60;;
35110;SDS011;21290;50.158;8.658;2023-04-06T04:00:56;13.30;;;7.97;;
35110;SDS011;21290;50.158;8.658;2023-04-06T04:03:23;12.60;;;8.23;;
35110;SDS011;21290;50.158;8.658;2023-04-06T04:05:53;17.40;;;8.70;;
35110;SDS011;21290;50.158;8.658;2023-04-06T04:08:21;14.30;;;8.90;;
35110;SDS011;21290;50.158;8.658;2023-04-06T04:10:48;17.30;;;9.13;;
35110;SDS011;21290;50.158;8.658;2023-04-06T04:13:14;16.43;;;8.87;;
35110;SDS011;21290;50.158;8.658;2023-04-06T04:15:41;14.73;;;8.60;;
35110;SDS011;21290;50.158;8.658;2023-04-06T04:18:08;13.03;;;8.40;;
35110;SDS011;21290;50.158;8.658;2023-04-06T04:20:34;13.23;;;8.90;;
35110;SDS011;21290;50.158;8.658;2023-04-06T04:23:01;13.53;;;8.33;;
35110;SDS011;21290;50.158;8.658;2023-04-06T04:25:28;15.07;;;9.10;;
35110;SDS011;21290;50.158;8.658;2023-04-06T04:27:54;19.23;;;9.57;;
35110;SDS011;21290;50.158;8.658;2023-04-06T04:30:21;24.43;;;9.00;;
35110;SDS011;21290;50.158;8.658;2023-04-06T04:32:48;15.77;;;9.47;;
35110;SDS011;21290;50.158;8.658;2023-04-06T04:35:14;14.30;;;9.67;;
35110;SDS011;21290;50.158;8.658;2023-04-06T04:37:41;17.40;;;9.13;;
35110;SDS011;21290;50.158;8.658;2023-04-06T04:40:08;15.90;;;9.60;;
35110;SDS011;21290;50.158;8.658;2023-04-06T04:42:35;13.80;;;9.00;;
35110;SDS011;21290;50.158;8.658;2023-04-06T04:45:02;12.53;;;8.50;;
35110;SDS011;21290;50.158;8.658;2023-04-06T04:47:28;16.20;;;9.53;;
35110;SDS011;21290;50.158;8.658;2023-04-06T04:49:55;13.77;;;9.43;;
35110;SDS011;21290;50.158;8.658;2023-04-06T04:52:22;13.03;;;8.43;;
35110;SDS011;21290;50.158;8.658;2023-04-06T04:54:48;14.63;;;9.83;;
35110;SDS011;21290;50.158;8.658;2023-04-06T04:57:15;20.63;;;9.17;;
35110;SDS011;21290;50.158;8.658;2023-04-06T04:59:42;13.10;;;9.40;;
35110;SDS011;21290;50.158;8.658;2023-04-06T05:02:09;15.73;;;9.57;;
35110;SDS011;21290;50.158;8.658;2023-04-06T05:04:36;14.07;;;8.97;;
35110;SDS011;21290;50.158;8.658;2023-04-06T05:07:06;14.97;;;9.70;;
35110;SDS011;21290;50.158;8.658;2023-04-06T05:09:36;15.53;;;8.97;;
35110;SDS011;21290;50.158;8.658;2023-04-06T05:12:02;27.93;;;9.00;;
35110;SDS011;21290;50.158;8.658;2023-04-06T05:14:29;16.33;;;9.33;;
35110;SDS011;21290;50.158;8.658;2023-04-06T05:16:56;21.47;;;9.83;;
35110;SDS011;21290;50.158;8.658;2023-04-06T05:19:23;27.87;;;10.37;;
35110;SDS011;21290;50.158;8.658;2023-04-06T05:21:49;16.27;;;9.63;;
35110;SDS011;21290;50.158;8.658;2023-04-06T05:24:16;14.40;;;9.47;;
35110;SDS011;21290;50.158;8.658;2023-04-06T05:26:42;15.67;;;9.20;;
35110;SDS011;21290;50.158;8.658;2023-04-06T05:29:10;16.23;;;8.97;;
35110;SDS011;21290;50.158;8.658;2023-04-06T05:31:37;15.63;;;9.30;;
35110;SDS011;21290;50.158;8.658;2023-04-06T05:34:03;23.73;;;9.10;;
35110;SDS011;21290;50.158;8.658;2023-04-06T05:36:30;21.13;;;9.10;;
35110;SDS011;21290;50.158;8.658;2023-04-06T05:38:58;16.57;;;8.80;;
35110;SDS011;21290;50.158;8.658;2023-04-06T05:41:25;29.77;;;9.80;;
35110;SDS011;21290;50.158;8.658;2023-04-06T05:43:52;23.90;;;9.60;;
35110;SDS011;21290;50.158;8.658;2023-04-06T05:46:19;21.10;;;9.17;;
35110;SDS011;21290;50.158;8.658;2023-04-06T05:48:46;16.67;;;9.73;;
35110;SDS011;21290;50.158;8.658;2023-04-06T05:51:12;17.03;;;9.07;;
35110;SDS011;21290;50.158;8.658;2023-04-06T05:53:39;19.23;;;9.43;;
35110;SDS011;21290;50.158;8.658;2023-04-06T05:56:06;26.70;;;9.80;;
35110;SDS011;21290;50.158;8.658;2023-04-06T05:58:33;23.90;;;9.00;;
35110;SDS011;21290;50.158;8.658;2023-04-06T06:01:00;18.30;;;8.73;;
35110;SDS011;21290;50.158;8.658;2023-04-06T06:03:27;17.63;;;8.80;;
35110;SDS011;21290;50.158;8.658;2023-04-06T06:05:53;27.73;;;9.60;;
35110;SDS011;21290;50.158;8.658;2023-04-06T06:08:26;23.90;;;9.07;;
35110;SDS011;21290;50.158;8.658;2023-04-06T06:10:52;15.93;;;9.70;;
35110;SDS011;21290;50.158;8.658;2023-04-06T06:13:19;15.60;;;9.27;;
35110;SDS011;21290;50.158;8.658;2023-04-06T06:15:46;17.80;;;9.10;;
35110;SDS011;21290;50.158;8.658;2023-04-06T06:18:12;18.10;;;9.02;;
35110;SDS011;21290;50.158;8.658;2023-04-06T06:20:39;26.92;;;9.88;;
35110;SDS011;21290;50.158;8.658;2023-04-06T06:23:06;14.85;;;9.18;;
35110;SDS011;21290;50.158;8.658;2023-04-06T06:25:32;26.42;;;9.35;;
35110;SDS011;21290;50.158;8.658;2023-04-06T06:27:59;20.85;;;9.45;;
35110;SDS011;21290;50.158;8.658;2023-04-06T06:30:26;22.92;;;10.43;;
35110;SDS011;21290;50.158;8.658;2023-04-06T06:32:52;22.05;;;10.18;;
35110;SDS011;21290;50.158;8.658;2023-04-06T06:35:19;23.77;;;10.82;;
35110;SDS011;21290;50.158;8.658;2023-04-06T06:37:46;18.35;;;11.02;;
35110;SDS011;21290;50.158;8.658;2023-04-06T06:40:12;28.77;;;11.13;;
35110;SDS011;21290;50.158;8.658;2023-04-06T06:42:41;25.63;;;11.40;;
35110;SDS011;21290;50.158;8.658;2023-04-06T06:45:08;17.40;;;10.35;;
35110;SDS011;21290;50.158;8.658;2023-04-06T06:47:36;17.15;;;9.95;;
35110;SDS011;21290;50.158;8.658;2023-04-06T06:50:02;17.55;;;10.13;;
35110;SDS011;21290;50.158;8.658;2023-04-06T06:52:29;23.33;;;10.63;;
35110;SDS011;21290;50.158;8.658;2023-04-06T06:54:56;11.40;;;8.55;;
35110;SDS011;21290;50.158;8.658;2023-04-06T06:57:23;18.02;;;9.98;;
35110;SDS011;21290;50.158;8.658;2023-04-06T06:59:49;16.65;;;9.75;;
35110;SDS011;21290;50.158;8.658;2023-04-06T07:02:16;18.90;;;10.27;;
35110;SDS011;21290;50.158;8.658;2023-04-06T07:04:43;21.83;;;11.45;;
35110;SDS011;21290;50.158;8.658;2023-04-06T07:07:09;16.98;;;9.80;;
35110;SDS011;21290;50.158;8.658;2023-04-06T07:09:36;20.30;;;13.30;;
35110;SDS011;21290;50.158;8.658;2023-04-06T07:12:02;29.48;;;10.45;;
35110;SDS011;21290;50.158;8.658;2023-04-06T07:14:29;24.00;;;11.20;;
35110;SDS011;21290;50.158;8.658;2023-04-06T07:16:56;17.92;;;9.32;;
35110;SDS011;21290;50.158;8.658;2023-04-06T07:19:22;16.15;;;8.77;;
35110;SDS011;21290;50.158;8.658;2023-04-06T07:21:49;14.63;;;8.90;;
35110;SDS011;21290;50.158;8.658;2023-04-06T07:24:16;21.85;;;9.95;;
35110;SDS011;21290;50.158;8.658;2023-04-06T07:26:43;21.38;;;9.68;;
35110;SDS011;21290;50.158;8.658;2023-04-06T07:29:09;20.50;;;9.43;;
35110;SDS011;21290;50.158;8.658;2023-04-06T07:31:36;14.27;;;9.75;;
35110;SDS011;21290;50.158;8.658;2023-04-06T07:34:03;16.70;;;9.48;;
35110;SDS011;21290;50.158;8.658;2023-04-06T07:36:31;21.85;;;9.73;;
35110;SDS011;21290;50.158;8.658;2023-04-06T07:38:57;16.95;;;9.80;;
35110;SDS011;21290;50.158;8.658;2023-04-06T07:41:24;17.52;;;10.35;;
35110;SDS011;21290;50.158;8.658;2023-04-06T07:43:50;15.77;;;10.57;;
35110;SDS011;21290;50.158;8.658;2023-04-06T07:46:17;14.18;;;9.68;;
35110;SDS011;21290;50.158;8.658;2023-04-06T07:48:44;20.58;;;11.45;;
35110;SDS011;21290;50.158;8.658;2023-04-06T07:51:10;20.95;;;11.00;;
35110;SDS011;21290;50.158;8.658;2023-04-06T07:53:40;13.68;;;10.75;;
35110;SDS011;21290;50.158;8.658;2023-04-06T07:56:06;16.13;;;10.25;;
35110;SDS011;21290;50.158;8.658;2023-04-06T07:58:33;16.73;;;9.98;;
35110;SDS011;21290;50.158;8.658;2023-04-06T08:01:00;14.73;;;10.93;;
35110;SDS011;21290;50.158;8.658;2023-04-06T08:03:27;14.30;;;10.20;;
35110;SDS011;21290;50.158;8.658;2023-04-06T08:05:54;17.45;;;11.52;;
35110;SDS011;21290;50.158;8.658;2023-04-06T08:08:21;14.63;;;10.02;;
35110;SDS011;21290;50.158;8.658;2023-04-06T08:10:48;17.38;;;10.52;;
35110;SDS011;21290;50.158;8.658;2023-04-06T08:13:15;14.05;;;10.75;;
35110;SDS011;21290;50.158;8.658;2023-04-06T08:15:42;18.95;;;10.30;;
35110;SDS011;21290;50.158;8.658;2023-04-06T08:18:09;14.45;;;9.80;;
35110;SDS011;21290;50.158;8.658;2023-04-06T08:20:36;13.52;;;10.23;;
35110;SDS011;21290;50.158;8.658;2023-04-06T08:23:03;15.50;;;10.13;;
35110;SDS011;21290;50.158;8.658;2023-04-06T08:25:30;17.75;;;10.55;;
35110;SDS011;21290;50.158;8.658;2023-04-06T08:27:56;11.85;;;9.95;;
35110;SDS011;21290;50.158;8.658;2023-04-06T08:30:23;14.45;;;9.88;;
35110;SDS011;21290;50.158;8.658;2023-04-06T08:32:49;12.85;;;9.80;;
35110;SDS011;21290;50.158;8.658;2023-04-06T08:35:16;13.20;;;9.98;;
35110;SDS011;21290;50.158;8.658;2023-04-06T08:37:44;13.35;;;10.75;;
35110;SDS011;21290;50.158;8.658;2023-04-06T08:40:11;12.45;;;10.15;;
35110;SDS011;21290;50.158;8.658;2023-04-06T08:42:39;12.05;;;9.32;;
35110;SDS011;21290;50.158;8.658;2023-04-06T08:45:09;13.48;;;10.20;;
35110;SDS011;21290;50.158;8.658;2023-04-06T08:47:36;12.23;;;9.63;;
35110;SDS011;21290;50.158;8.658;2023-04-06T08:50:03;12.43;;;9.60;;
35110;SDS011;21290;50.158;8.658;2023-04-06T08:52:31;13.73;;;9.48;;
35110;SDS011;21290;50.158;8.658;2023-04-06T08:55:00;12.57;;;9.27;;
35110;SDS011;21290;50.158;8.658;2023-04-06T08:57:27;12.20;;;9.38;;
35110;SDS011;21290;50.158;8.658;2023-04-06T08:59:54;12.57;;;9.35;;
35110;SDS011;21290;50.158;8.658;2023-04-06T09:02:22;13.18;;;9.20;;
35110;SDS011;21290;50.158;8.658;2023-04-06T09:04:52;12.70;;;9.77;;
35110;SDS011;21290;50.158;8.658;2023-04-06T09:07:20;15.27;;;9.88;;
35110;SDS011;21290;50.158;8.658;2023-04-06T09:09:47;11.18;;;9.23;;
35110;SDS011;21290;50.158;8.658;2023-04-06T09:12:24;11.68;;;8.75;;
35110;SDS011;21290;50.158;8.658;2023-04-06T09:14:52;12.10;;;8.20;;
35110;SDS011;21290;50.158;8.658;2023-04-06T09:17:24;11.38;;;9.00;;
35110;SDS011;21290;50.158;8.658;2023-04-06T09:19:51;11.63;;;8.75;;
35110;SDS011;21290;50.158;8.658;2023-04-06T09:22:18;11.43;;;8.95;;
35110;SDS011;21290;50.158;8.658;2023-04-06T09:24:55;15.52;;;9.18;;
35110;SDS011;21290;50.158;8.658;2023-04-06T09:27:34;10.68;;;8.52;;
35110;SDS011;21290;50.158;8.658;2023-04-06T09:30:06;12.32;;;9.38;;
35110;SDS011;21290;50.158;8.658;2023-04-06T09:32:44;10.15;;;8.60;;
35110;SDS011;21290;50.158;8.658;2023-04-06T09:35:18;10.50;;;8.95;;
35110;SDS011;21290;50.158;8.658;2023-04-06T09:37:46;14.17;;;8.97;;
35110;SDS011;21290;50.158;8.658;2023-04-06T09:40:14;12.75;;;9.23;;
35110;SDS011;21290;50.158;8.658;2023-04-06T09:42:46;12.48;;;9.05;;
35110;SDS011;21290;50.158;8.658;2023-04-06T09:45:18;10.32;;;8.18;;
35110;SDS011;21290;50.158;8.658;2023-04-06T09:47:46;9.60;;;8.02;;
35110;SDS011;21290;50.158;8.658;2023-04-06T09:50:14;15.55;;;8.60;;
35110;SDS011;21290;50.158;8.658;2023-04-06T09:52:46;12.10;;;8.18;;
35110;SDS011;21290;50.158;8.658;2023-04-06T09:55:36;17.60;;;8.63;;
35110;SDS011;21290;50.158;8.658;2023-04-06T09:58:12;11.55;;;8.75;;
35110;SDS011;21290;50.158;8.658;2023-04-06T10:00:49;11.27;;;9.02;;
35110;SDS011;21290;50.158;8.658;2023-04-06T10:06:31;11.32;;;8.30;;
35110;SDS011;21290;50.158;8.658;2023-04-06T10:09:01;13.88;;;9.02;;
35110;SDS011;21290;50.158;8.658;2023-04-06T10:11:30;15.23;;;8.45;;
35110;SDS011;21290;50.158;8.658;2023-04-06T10:13:57;21.60;;;9.35;;
35110;SDS011;21290;50.158;8.658;2023-04-06T10:16:24;14.65;;;8.55;;
35110;SDS011;21290;50.158;8.658;2023-04-06T10:18:54;12.27;;;8.43;;
35110;SDS011;21290;50.158;8.658;2023-04-06T10:21:26;13.35;;;8.85;;
35110;SDS011;21290;50.158;8.658;2023-04-06T10:23:59;12.65;;;8.77;;
35110;SDS011;21290;50.158;8.658;2023-04-06T10:26:27;10.40;;;9.18;;
35110;SDS011;21290;50.158;8.658;2023-04-06T10:28:54;14.93;;;9.30;;
35110;SDS011;21290;50.158;8.658;2023-04-06T10:31:25;12.38;;;8.93;;
35110;SDS011;21290;50.158;8.658;2023-04-06T10:33:56;11.25;;;8.98;;
35110;SDS011;21290;50.158;8.658;2023-04-06T10:36:24;15.68;;;9.32;;
35110;SDS011;21290;50.158;8.658;2023-04-06T10:38:57;12.02;;;9.15;;
35110;SDS011;21290;50.158;8.658;2023-04-06T10:41:44;16.33;;;9.63;;
35110;SDS011;21290;50.158;8.658;2023-04-06T10:44:17;14.95;;;8.82;;
35110;SDS011;21290;50.158;8.658;2023-04-06T10:46:57;14.82;;;9.00;;
35110;SDS011;21290;50.158;8.658;2023-04-06T10:49:27;13.15;;;8.70;;
35110;SDS011;21290;50.158;8.658;2023-04-06T10:51:54;12.98;;;9.45;;
35110;SDS011;21290;50.158;8.658;2023-04-06T10:54:23;12.98;;;9.25;;
35110;SDS011;21290;50.158;8.658;2023-04-06T10:56:50;15.05;;;9.27;;
35110;SDS011;21290;50.158;8.658;2023-04-06T10:59:20;12.13;;;8.88;;
35110;SDS011;21290;50.158;8.658;2023-04-06T11:01:48;16.00;;;9.48;;
35110;SDS011;21290;50.158;8.658;2023-04-06T11:04:16;13.52;;;8.38;;
35110;SDS011;21290;50.158;8.658;2023-04-06T11:06:47;15.02;;;8.55;;
35110;SDS011;21290;50.158;8.658;2023-04-06T11:09:27;11.63;;;9.13;;
35110;SDS011;21290;50.158;8.658;2023-04-06T11:11:55;10.98;;;8.48;;
35110;SDS011;21290;50.158;8.658;2023-04-06T11:14:23;15.68;;;9.30;;
35110;SDS011;21290;50.158;8.658;2023-04-06T11:16:50;16.08;;;9.75;;
35110;SDS011;21290;50.158;8.658;2023-04-06T11:19:17;18.33;;;9.10;;
35110;SDS011;21290;50.158;8.658;2023-04-06T11:21:45;14.68;;;9.88;;
35110;SDS011;21290;50.158;8.658;2023-04-06T11:26:54;14.55;;;10.30;;
35110;SDS011;21290;50.158;8.658;2023-04-06T11:29:22;13.00;;;8.93;;
35110;SDS011;21290;50.158;8.658;2023-04-06T11:31:52;15.20;;;10.13;;
35110;SDS011;21290;50.158;8.658;2023-04-06T11:34:20;16.45;;;9.65;;
35110;SDS011;21290;50.158;8.658;2023-04-06T11:36:49;14.68;;;9.68;;
35110;SDS011;21290;50.158;8.658;2023-04-06T11:39:23;16.45;;;10.45;;
35110;SDS011;21290;50.158;8.658;2023-04-06T11:41:53;12.32;;;9.48;;
35110;SDS011;21290;50.158;8.658;2023-04-06T11:47:05;18.33;;;10.85;;
35110;SDS011;21290;50.158;8.658;2023-04-06T11:49:33;13.25;;;10.00;;
35110;SDS011;21290;50.158;8.658;2023-04-06T11:52:13;17.52;;;10.50;;
35110;SDS011;21290;50.158;8.658;2023-04-06T11:54:41;30.23;;;10.80;;
35110;SDS011;21290;50.158;8.658;2023-04-06T11:57:08;13.90;;;9.77;;
35110;SDS011;21290;50.158;8.658;2023-04-06T11:59:35;15.70;;;9.70;;
35110;SDS011;21290;50.158;8.658;2023-04-06T12:02:02;14.27;;;10.20;;
35110;SDS011;21290;50.158;8.658;2023-04-06T12:04:29;16.63;;;10.18;;
35110;SDS011;21290;50.158;8.658;2023-04-06T12:06:57;16.75;;;10.68;;
35110;SDS011;21290;50.158;8.658;2023-04-06T12:09:24;17.98;;;10.90;;
35110;SDS011;21290;50.158;8.658;2023-04-06T12:11:51;16.08;;;10.00;;
35110;SDS011;21290;50.158;8.658;2023-04-06T12:14:17;16.48;;;11.35;;
35110;SDS011;21290;50.158;8.658;2023-04-06T12:16:44;17.27;;;9.77;;
35110;SDS011;21290;50.158;8.658;2023-04-06T12:19:11;15.80;;;10.20;;
35110;SDS011;21290;50.158;8.658;2023-04-06T12:21:37;12.43;;;9.48;;
35110;SDS011;21290;50.158;8.658;2023-04-06T12:24:04;13.27;;;10.20;;
35110;SDS011;21290;50.158;8.658;2023-04-06T12:26:31;19.48;;;10.55;;
35110;SDS011;21290;50.158;8.658;2023-04-06T12:28:59;23.95;;;10.27;;
35110;SDS011;21290;50.158;8.658;2023-04-06T12:31:36;15.05;;;9.70;;
35110;SDS011;21290;50.158;8.658;2023-04-06T12:34:07;12.57;;;9.00;;
35110;SDS011;21290;50.158;8.658;2023-04-06T12:36:33;15.25;;;9.68;;
35110;SDS011;21290;50.158;8.658;2023-04-06T12:39:00;14.50;;;9.80;;
35110;SDS011;21290;50.158;8.658;2023-04-06T12:41:28;19.65;;;9.75;;
35110;SDS011;21290;50.158;8.658;2023-04-06T12:43:55;13.95;;;8.73;;
35110;SDS011;21290;50.158;8.658;2023-04-06T12:46:22;13.05;;;9.38;;
35110;SDS011;21290;50.158;8.658;2023-04-06T12:48:50;12.57;;;9.25;;
35110;SDS011;21290;50.158;8.658;2023-04-06T12:51:19;11.02;;;8.30;;
35110;SDS011;21290;50.158;8.658;2023-04-06T12:53:46;14.95;;;9.90;;
35110;SDS011;21290;50.158;8.658;2023-04-06T12:56:13;14.20;;;9.90;;
35110;SDS011;21290;50.158;8.658;2023-04-06T12:58:45;15.60;;;8.57;;
35110;SDS011;21290;50.158;8.658;2023-04-06T13:01:12;15.77;;;8.13;;
35110;SDS011;21290;50.158;8.658;2023-04-06T13:03:40;14.68;;;8.45;;
35110;SDS011;21290;50.158;8.658;2023-04-06T13:06:07;13.95;;;8.90;;
35110;SDS011;21290;50.158;8.658;2023-04-06T13:08:34;11.70;;;8.45;;
35110;SDS011;21290;50.158;8.658;2023-04-06T13:11:03;13.63;;;8.77;;
35110;SDS011;21290;50.158;8.658;2023-04-06T13:13:31;11.68;;;8.18;;
35110;SDS011;21290;50.158;8.658;2023-04-06T13:16:02;12.32;;;8.63;;
35110;SDS011;21290;50.158;8.658;2023-04-06T13:18:33;13.77;;;8.63;;
35110;SDS011;21290;50.158;8.658;2023-04-06T13:21:00;11.75;;;9.00;;
35110;SDS011;21290;50.158;8.658;2023-04-06T13:23:27;15.30;;;9.32;;
35110;SDS011;21290;50.158;8.658;2023-04-06T13:26:04;12.63;;;9.18;;
35110;SDS011;21290;50.158;8.658;2023-04-06T13:28:32;13.27;;;8.98;;
35110;SDS011;21290;50.158;8.658;2023-04-06T13:31:01;15.43;;;7.85;;
35110;SDS011;21290;50.158;8.658;2023-04-06T13:33:28;13.00;;;9.20;;
35110;SDS011;21290;50.158;8.658;2023-04-06T13:35:56;13.13;;;8.45;;
35110;SDS011;21290;50.158;8.658;2023-04-06T13:38:23;12.93;;;8.40;;
35110;SDS011;21290;50.158;8.658;2023-04-06T13:40:53;15.93;;;8.80;;
35110;SDS011;21290;50.158;8.658;2023-04-06T13:43:20;12.35;;;9.40;;
35110;SDS011;21290;50.158;8.658;2023-04-06T13:45:50;11.43;;;8.50;;
35110;SDS011;21290;50.158;8.658;2023-04-06T13:48:18;13.15;;;8.88;;
35110;SDS011;21290;50.158;8.658;2023-04-06T13:50:44;12.88;;;8.63;;
35110;SDS011;21290;50.158;8.658;2023-04-06T13:53:12;12.00;;;8.18;;
35110;SDS011;21290;50.158;8.658;2023-04-06T13:55:39;14.63;;;9.05;;
35110;SDS011;21290;50.158;8.658;2023-04-06T13:58:05;12.30;;;8.38;;
35110;SDS011;21290;50.158;8.658;2023-04-06T14:00:32;11.00;;;8.88;;
35110;SDS011;21290;50.158;8.658;2023-04-06T14:02:59;12.38;;;8.20;;
35110;SDS011;21290;50.158;8.658;2023-04-06T14:05:25;14.68;;;9.23;;
35110;SDS011;21290;50.158;8.658;2023-04-06T14:07:53;12.68;;;8.70;;
35110;SDS011;21290;50.158;8.658;2023-04-06T14:10:20;12.43;;;9.20;;
35110;SDS011;21290;50.158;8.658;2023-04-06T14:12:49;12.88;;;9.00;;
35110;SDS011;21290;50.158;8.658;2023-04-06T14:15:16;14.27;;;8.70;;
35110;SDS011;21290;50.158;8.658;2023-04-06T14:17:43;15.43;;;8.00;;
35110;SDS011;21290;50.158;8.658;2023-04-06T14:20:10;10.93;;;7.93;;
35110;SDS011;21290;50.158;8.658;2023-04-06T14:22:40;11.55;;;7.90;;
35110;SDS011;21290;50.158;8.658;2023-04-06T14:25:08;11.98;;;7.55;;
35110;SDS011;21290;50.158;8.658;2023-04-06T14:27:37;15.47;;;7.20;;
35110;SDS011;21290;50.158;8.658;2023-04-06T14:30:03;11.57;;;7.68;;
35110;SDS011;21290;50.158;8.658;2023-04-06T14:32:30;10.73;;;7.30;;
35110;SDS011;21290;50.158;8.658;2023-04-06T14:34:58;10.48;;;7.43;;
35110;SDS011;21290;50.158;8.658;2023-04-06T14:37:24;10.80;;;7.07;;
35110;SDS011;21290;50.158;8.658;2023-04-06T14:39:52;10.57;;;6.85;;
35110;SDS011;21290;50.158;8.658;2023-04-06T14:42:18;13.90;;;7.00;;
35110;SDS011;21290;50.158;8.658;2023-04-06T14:44:45;9.10;;;6.60;;